« Back
NWS Peachtree City, Ga » Text Product » CSG Terminal Aerodrome Forecast


Printer-friendly Version
Current Version              Previous Versions:   1  2  3  4  5  6  7  8  9  

Terminal Aerodrome Forecast

368
FTUS42 KFFC 201523 AAA
TAFCSG
TAF AMD
KCSG 201523Z 2015/2112 05005KT P6SM VCSH OVC025
      TEMPO 2015/2017 5SM BR BKN009
     FM202000 08005KT P6SM BKN040
     FM202300 35004KT P6SM SCT050
     FM210700 05004KT 5SM BR OVC025
     FM211100 06005KT 4SM BR OVC004=

USA.gov is the U.S. government's official web portal to all federal, state and local government web resources and services.